createdAt,value
2019-04-22T00:00:10.769Z,15.14
2019-04-22T00:01:14.947Z,15.12
2019-04-22T00:02:13.182Z,15.14
2019-04-22T00:03:12.931Z,15.11
2019-04-22T00:04:15.976Z,15.12
2019-04-22T00:05:19.237Z,15.00
2019-04-22T00:06:34.116Z,15.09
2019-04-22T00:07:36.186Z,15.09
2019-04-22T00:08:37.255Z,14.97
2019-04-22T00:09:38.809Z,14.96
2019-04-22T00:10:43.715Z,15.09
2019-04-22T00:11:38.370Z,15.12
2019-04-22T00:12:37.209Z,14.97
2019-04-22T00:13:40.700Z,15.06
2019-04-22T00:14:28.428Z,15.00
2019-04-22T00:15:32.526Z,14.95
2019-04-22T00:16:37.777Z,15.12
2019-04-22T00:17:38.803Z,15.12
2019-04-22T00:18:46.837Z,14.97
2019-04-22T00:19:37.230Z,15.09
2019-04-22T00:20:37.035Z,15.09
2019-04-22T00:22:35.147Z,15.09
2019-04-22T00:23:31.663Z,15.15
2019-04-22T00:24:30.749Z,15.14
2019-04-22T00:25:34.714Z,15.15
2019-04-22T00:26:37.454Z,15.24
2019-04-22T00:28:41.552Z,15.17
2019-04-22T00:29:55.850Z,15.19
2019-04-22T00:30:25.490Z,15.19
2019-04-22T00:31:33.283Z,15.19
2019-04-22T00:32:30.451Z,15.25
2019-04-22T00:33:32.391Z,15.25
2019-04-22T00:34:22.537Z,15.24
2019-04-22T00:35:33.215Z,15.17
2019-04-22T00:36:24.845Z,15.21
2019-04-22T00:37:37.933Z,15.24
2019-04-22T00:38:38.665Z,15.21
2019-04-22T00:39:37.254Z,15.14
2019-04-22T00:40:33.656Z,15.18
2019-04-22T00:41:40.596Z,15.28
2019-04-22T00:42:36.361Z,15.35
2019-04-22T00:43:34.948Z,15.32
2019-04-22T00:45:35.856Z,15.30
2019-04-22T00:46:39.391Z,15.32
2019-04-22T00:47:32.175Z,15.28
2019-04-22T00:48:34.012Z,15.33
2019-04-22T00:50:30.107Z,15.33
2019-04-22T00:51:36.475Z,15.40
2019-04-22T00:52:34.665Z,15.42
2019-04-22T00:53:35.829Z,15.42
2019-04-22T00:54:43.925Z,15.32
2019-04-22T00:55:32.594Z,15.33
2019-04-22T00:56:29.432Z,15.32
2019-04-22T00:57:35.731Z,15.27
2019-04-22T00:58:30.734Z,15.28
2019-04-22T00:59:34.761Z,15.32
2019-04-22T01:00:33.842Z,15.33
2019-04-22T01:01:31.101Z,15.28
2019-04-22T01:02:34.751Z,15.30
2019-04-22T01:03:38.608Z,15.33
2019-04-22T01:04:39.092Z,15.27
2019-04-22T01:05:37.032Z,15.30
2019-04-22T01:06:35.778Z,15.33
2019-04-22T01:07:30.815Z,15.40
2019-04-22T01:08:43.216Z,15.40
2019-04-22T01:09:34.841Z,15.39
2019-04-22T01:10:35.214Z,15.35
2019-04-22T01:12:31.926Z,15.33
2019-04-22T01:13:30.528Z,15.35
2019-04-22T01:14:36.953Z,15.32
2019-04-22T01:15:38.976Z,15.32
2019-04-22T01:16:28.075Z,15.28
2019-04-22T01:17:34.344Z,15.36
2019-04-22T01:18:29.255Z,15.27
2019-04-22T01:19:32.325Z,15.32
2019-04-22T01:20:54.506Z,15.22
2019-04-22T01:21:36.844Z,15.21
2019-04-22T01:22:30.013Z,15.19
2019-04-22T01:23:32.581Z,15.22
2019-04-22T01:24:30.977Z,15.21
2019-04-22T01:25:24.951Z,15.18
2019-04-22T01:26:27.144Z,15.15
2019-04-22T01:27:20.817Z,15.12
2019-04-22T01:28:18.065Z,15.02
2019-04-22T01:29:19.734Z,15.12
2019-04-22T01:30:19.704Z,15.04
2019-04-22T01:31:12.366Z,14.96
2019-04-22T01:32:11.833Z,14.97
2019-04-22T01:33:14.045Z,14.99
2019-04-22T01:34:24.708Z,14.88
2019-04-22T01:35:19.711Z,14.91
2019-04-22T01:36:25.973Z,14.91
2019-04-22T01:37:26.284Z,14.85
2019-04-22T01:38:23.629Z,14.84
2019-04-22T01:39:28.789Z,14.85
2019-04-22T01:40:33.487Z,14.84
2019-04-22T01:41:33.643Z,14.87
2019-04-22T01:42:35.768Z,14.82
2019-04-22T01:43:33.372Z,14.77
2019-04-22T01:44:34.492Z,14.81
2019-04-22T01:45:36.307Z,14.73
2019-04-22T01:46:34.877Z,14.77
2019-04-22T01:47:32.755Z,14.79
2019-04-22T01:48:35.799Z,14.68
2019-04-22T01:49:34.349Z,14.78
2019-04-22T01:50:33.797Z,14.69
2019-04-22T01:51:40.633Z,14.74
2019-04-22T01:52:31.417Z,14.78
2019-04-22T01:53:38.887Z,14.77
2019-04-22T01:54:38.274Z,14.70
2019-04-22T01:55:35.673Z,14.79
2019-04-22T01:57:28.796Z,14.74
2019-04-22T01:58:26.217Z,14.65
2019-04-22T01:59:22.455Z,14.77
2019-04-22T02:00:34.213Z,14.78
2019-04-22T02:01:32.456Z,14.66
2019-04-22T02:02:30.513Z,14.68
2019-04-22T02:03:33.648Z,14.61
2019-04-22T02:05:28.959Z,14.62
2019-04-22T02:06:35.105Z,14.73
2019-04-22T02:07:30.498Z,14.65
2019-04-22T02:08:39.359Z,14.66
2019-04-22T02:09:47.457Z,14.63
2019-04-22T02:10:34.759Z,14.63
2019-04-22T02:11:32.585Z,14.66
2019-04-22T02:12:33.646Z,14.63
2019-04-22T02:13:28.784Z,14.73
2019-04-22T02:14:37.443Z,14.63
2019-04-22T02:15:32.883Z,14.69
2019-04-22T02:16:36.162Z,14.70
2019-04-22T02:17:33.344Z,14.81
2019-04-22T02:18:36.186Z,14.79
2019-04-22T02:19:45.620Z,14.78
2019-04-22T02:20:31.478Z,14.74
2019-04-22T02:21:31.924Z,14.87
2019-04-22T02:22:43.810Z,14.81
2019-04-22T02:24:33.397Z,14.84
2019-04-22T02:25:36.538Z,14.97
2019-04-22T02:26:31.501Z,14.97
2019-04-22T02:27:35.485Z,15.00
2019-04-22T02:28:38.304Z,15.06
2019-04-22T02:29:31.069Z,14.97
2019-04-22T02:30:37.037Z,15.03
2019-04-22T02:31:37.621Z,15.14
2019-04-22T02:34:40.011Z,15.12
2019-04-22T02:35:52.152Z,15.04
2019-04-22T02:36:45.148Z,15.00
2019-04-22T02:37:32.631Z,15.12
2019-04-22T02:39:38.314Z,15.00
2019-04-22T02:40:44.385Z,14.99
2019-04-22T02:42:29.917Z,14.97
2019-04-22T02:43:43.584Z,14.97
2019-04-22T02:44:37.367Z,14.95
2019-04-22T02:45:37.673Z,15.04
2019-04-22T02:46:45.068Z,14.99
2019-04-22T02:47:27.575Z,15.03
2019-04-22T02:49:29.186Z,15.03
2019-04-22T02:50:28.596Z,14.95
2019-04-22T02:51:28.202Z,15.09
2019-04-22T02:54:02.603Z,15.06
2019-04-22T02:54:40.397Z,14.95
2019-04-22T02:55:34.834Z,14.97
2019-04-22T02:56:33.990Z,14.97
2019-04-22T02:58:49.994Z,14.84
2019-04-22T02:59:34.596Z,14.87
2019-04-22T03:02:45.630Z,14.73
2019-04-22T03:04:22.631Z,14.77
2019-04-22T03:05:42.014Z,14.70
2019-04-22T03:06:42.154Z,14.81
2019-04-22T03:07:31.747Z,14.74
2019-04-22T03:08:51.697Z,14.63
2019-04-22T03:09:33.782Z,14.74
2019-04-22T03:11:36.129Z,14.74
2019-04-22T03:13:40.427Z,14.59
2019-04-22T03:14:30.175Z,14.61
2019-04-22T03:15:34.953Z,14.63
2019-04-22T03:18:41.542Z,14.50
2019-04-22T03:19:48.207Z,14.48
2019-04-22T03:20:28.988Z,14.47
2019-04-22T03:21:31.209Z,14.43
2019-04-22T03:22:27.931Z,14.47
2019-04-22T03:26:31.755Z,14.44
2019-04-22T03:27:29.698Z,14.43
2019-04-22T03:28:44.421Z,14.43
2019-04-22T03:29:28.457Z,14.32
2019-04-22T03:32:59.276Z,14.48
2019-04-22T03:35:20.001Z,14.47
2019-04-22T03:38:41.172Z,14.41
2019-04-22T03:42:05.843Z,14.36
2019-04-22T03:42:48.551Z,14.41
2019-04-22T03:43:39.565Z,14.40
2019-04-22T03:46:30.476Z,14.28
2019-04-22T03:47:38.222Z,14.26
2019-04-22T03:48:26.155Z,14.28
2019-04-22T03:49:41.162Z,14.20
2019-04-22T03:52:27.877Z,14.10
2019-04-22T03:58:28.412Z,13.83
2019-04-22T03:59:33.498Z,13.85
2019-04-22T04:01:37.268Z,13.68
2019-04-22T04:03:31.794Z,13.71
2019-04-22T04:04:33.371Z,13.57
2019-04-22T04:05:37.569Z,13.72
2019-04-22T04:06:39.908Z,13.67
2019-04-22T04:08:38.822Z,13.56
2019-04-22T04:09:34.437Z,13.47
2019-04-22T04:10:35.336Z,13.53
2019-04-22T04:11:45.627Z,13.45
2019-04-22T04:12:38.548Z,13.39
2019-04-22T04:16:32.585Z,13.38
2019-04-22T04:17:29.637Z,13.35
2019-04-22T04:18:30.127Z,13.33
2019-04-22T04:19:38.748Z,13.29
2019-04-22T04:20:32.249Z,13.19
2019-04-22T04:21:41.140Z,13.27
2019-04-22T04:22:50.311Z,13.21
2019-04-22T04:23:38.273Z,13.19
2019-04-22T04:31:35.668Z,13.13
2019-04-22T04:33:29.167Z,12.96
2019-04-22T04:34:54.153Z,12.91
2019-04-22T04:35:44.277Z,12.91
2019-04-22T04:36:35.533Z,12.91
2019-04-22T04:38:28.796Z,12.97
2019-04-22T04:43:42.027Z,12.90
2019-04-22T04:44:59.245Z,12.91
2019-04-22T04:45:42.793Z,12.93
2019-04-22T04:46:38.119Z,12.93
2019-04-22T04:47:43.992Z,12.90
2019-04-22T04:48:32.685Z,12.87
2019-04-22T04:50:27.348Z,12.73
2019-04-22T04:51:33.032Z,12.88
2019-04-22T04:52:38.982Z,12.79
2019-04-22T04:54:31.853Z,12.87
2019-04-22T04:55:34.963Z,12.96
2019-04-22T04:56:35.854Z,12.94
2019-04-22T04:57:33.758Z,12.85
2019-04-22T04:58:36.731Z,12.78
2019-04-22T04:59:41.269Z,12.87
2019-04-22T05:01:33.403Z,12.78
2019-04-22T05:02:44.615Z,12.75
2019-04-22T05:04:37.238Z,12.76
2019-04-22T05:06:33.131Z,12.87
2019-04-22T05:08:38.658Z,12.90
2019-04-22T05:09:29.938Z,12.93
2019-04-22T05:10:53.669Z,12.94
2019-04-22T05:11:37.304Z,12.90
2019-04-22T05:12:45.307Z,12.94
2019-04-22T05:13:33.521Z,13.00
2019-04-22T05:14:24.289Z,12.97
2019-04-22T05:15:23.314Z,13.00
2019-04-22T05:16:42.534Z,13.01
2019-04-22T05:17:25.322Z,13.06
2019-04-22T05:19:29.513Z,13.06
2019-04-22T05:20:33.834Z,13.05
2019-04-22T05:21:29.583Z,13.03
2019-04-22T05:22:23.222Z,13.11
2019-04-22T05:23:24.981Z,13.13
2019-04-22T05:24:26.248Z,13.19
2019-04-22T05:27:29.403Z,13.33
2019-04-22T05:28:22.567Z,13.35
2019-04-22T05:30:26.571Z,13.43
2019-04-22T05:31:24.388Z,13.50
2019-04-22T05:32:27.098Z,13.70
2019-04-22T05:33:23.668Z,13.90
2019-04-22T05:34:21.513Z,14.05
2019-04-22T05:35:20.698Z,14.20
2019-04-22T05:36:26.393Z,14.43
2019-04-22T05:37:21.439Z,14.48
2019-04-22T05:38:26.011Z,14.63
2019-04-22T05:39:15.752Z,14.89
2019-04-22T05:40:22.942Z,14.99
2019-04-22T05:41:17.927Z,15.14
2019-04-22T05:42:21.717Z,15.18
2019-04-22T05:43:25.374Z,15.32
2019-04-22T05:44:38.849Z,15.42
2019-04-22T05:45:19.180Z,15.42
2019-04-22T05:46:17.285Z,15.61
2019-04-22T05:47:22.580Z,15.60
2019-04-22T05:48:18.353Z,15.76
2019-04-22T05:49:18.198Z,15.85
2019-04-22T05:50:19.240Z,15.87
2019-04-22T05:51:23.344Z,15.98
2019-04-22T05:52:14.959Z,16.08
2019-04-22T05:53:14.831Z,16.05
2019-04-22T05:54:22.375Z,16.25
2019-04-22T05:55:22.432Z,16.34
2019-04-22T05:56:28.190Z,16.31
2019-04-22T05:57:18.071Z,16.34
2019-04-22T05:58:15.336Z,16.34
2019-04-22T05:59:19.067Z,16.46
2019-04-22T06:00:25.804Z,16.49
2019-04-22T06:02:23.841Z,16.65
2019-04-22T06:03:16.763Z,16.64
2019-04-22T06:04:15.152Z,16.74
2019-04-22T06:05:17.188Z,16.66
2019-04-22T06:06:18.122Z,16.71
2019-04-22T06:07:13.777Z,16.87
2019-04-22T06:08:19.104Z,16.83
2019-04-22T06:09:22.413Z,16.90
2019-04-22T06:10:39.445Z,16.90
2019-04-22T06:11:24.171Z,16.83
2019-04-22T06:12:12.176Z,16.86
2019-04-22T06:13:13.838Z,16.83
2019-04-22T06:14:18.997Z,16.96
2019-04-22T06:15:18.362Z,16.82
2019-04-22T06:16:17.958Z,16.91
2019-04-22T06:17:21.731Z,16.90
2019-04-22T06:20:15.302Z,17.06
2019-04-22T06:21:22.418Z,17.20
2019-04-22T06:22:23.873Z,17.16
2019-04-22T06:23:19.100Z,17.19
2019-04-22T06:25:20.629Z,17.22
2019-04-22T06:26:31.265Z,17.27
2019-04-22T06:27:21.943Z,17.31
2019-04-22T06:28:20.327Z,17.48
2019-04-22T06:30:15.641Z,17.63
2019-04-22T06:31:15.996Z,17.65
2019-04-22T06:33:20.634Z,17.80
2019-04-22T06:35:25.695Z,17.76
2019-04-22T06:36:16.240Z,17.60
2019-04-22T06:37:20.687Z,17.63
2019-04-22T06:39:28.161Z,17.65
2019-04-22T06:40:24.797Z,17.73
2019-04-22T06:42:18.041Z,17.85
2019-04-22T06:43:15.779Z,17.97
2019-04-22T06:44:29.596Z,18.05
2019-04-22T06:45:18.787Z,18.04
2019-04-22T06:46:22.415Z,18.15
2019-04-22T06:47:38.322Z,18.22
2019-04-22T06:49:20.970Z,18.13
2019-04-22T06:50:19.975Z,18.12
2019-04-22T06:51:18.468Z,18.18
2019-04-22T06:53:22.212Z,18.05
2019-04-22T06:54:17.589Z,18.04
2019-04-22T06:55:16.761Z,18.07
2019-04-22T06:56:17.305Z,18.00
2019-04-22T06:57:17.205Z,18.12
2019-04-22T06:58:15.108Z,18.25
2019-04-22T06:59:14.841Z,18.25
2019-04-22T07:00:22.494Z,18.28
2019-04-22T07:01:19.425Z,18.28
2019-04-22T07:02:16.648Z,18.35
2019-04-22T07:03:34.697Z,18.40
2019-04-22T07:04:09.365Z,18.48
2019-04-22T07:05:17.953Z,18.56
2019-04-22T07:06:20.109Z,18.56
2019-04-22T07:07:12.279Z,18.48
2019-04-22T07:09:01.308Z,18.55
2019-04-22T07:10:26.841Z,18.59
2019-04-22T07:11:06.234Z,18.58
2019-04-22T07:12:20.844Z,18.62
2019-04-22T07:13:21.145Z,18.73
2019-04-22T07:14:10.502Z,18.78
2019-04-22T07:15:24.212Z,18.80
2019-04-22T07:16:18.682Z,18.86
2019-04-22T07:17:15.948Z,18.95
2019-04-22T07:18:19.697Z,19.04
2019-04-22T07:19:18.090Z,18.98
2019-04-22T07:20:18.031Z,19.05
2019-04-22T07:21:15.899Z,19.15
2019-04-22T07:22:18.094Z,19.16
2019-04-22T07:24:32.022Z,19.34
2019-04-22T07:25:10.170Z,19.26
2019-04-22T07:27:14.602Z,19.34
2019-04-22T07:28:21.676Z,19.30
2019-04-22T07:29:17.223Z,19.34
2019-04-22T07:30:15.431Z,19.31
2019-04-22T07:31:32.536Z,19.23
2019-04-22T07:32:15.284Z,19.31
2019-04-22T07:35:14.135Z,19.49
2019-04-22T07:36:39.674Z,19.62
2019-04-22T07:38:22.314Z,19.42
2019-04-22T07:39:15.601Z,19.49
2019-04-22T07:40:11.839Z,19.54
2019-04-22T07:41:17.228Z,19.62
2019-04-22T07:42:12.535Z,19.73
2019-04-22T07:43:19.996Z,19.81
2019-04-22T07:45:10.587Z,19.85
2019-04-22T07:46:16.444Z,19.88
2019-04-22T07:47:18.563Z,19.81
2019-04-22T07:48:21.957Z,19.94
2019-04-22T07:49:12.796Z,19.91
2019-04-22T07:50:31.197Z,19.85
2019-04-22T07:51:13.775Z,19.89
2019-04-22T07:52:11.894Z,19.92
2019-04-22T07:53:10.016Z,19.94
2019-04-22T07:54:16.310Z,19.94
2019-04-22T07:55:07.097Z,20.10
2019-04-22T07:56:11.859Z,20.10
2019-04-22T07:58:16.907Z,20.07
2019-04-22T07:59:15.280Z,20.06
2019-04-22T08:00:16.171Z,20.18
2019-04-22T08:01:19.135Z,20.25
2019-04-22T08:02:09.340Z,20.11
2019-04-22T08:04:23.183Z,20.18
2019-04-22T08:05:17.204Z,20.18
2019-04-22T08:07:14.570Z,20.21
2019-04-22T08:08:21.562Z,20.26
2019-04-22T08:09:13.889Z,20.31
2019-04-22T08:10:18.590Z,20.34
2019-04-22T08:11:22.217Z,20.31
2019-04-22T08:12:02.964Z,20.41
2019-04-22T08:13:11.866Z,20.56
2019-04-22T08:14:14.975Z,20.55
2019-04-22T08:15:13.093Z,20.48
2019-04-22T08:16:14.176Z,20.60
2019-04-22T08:17:43.193Z,20.53
2019-04-22T08:18:09.936Z,20.63
2019-04-22T08:19:15.763Z,20.62
2019-04-22T08:20:18.938Z,20.74
2019-04-22T08:21:13.687Z,20.65
2019-04-22T08:22:07.905Z,20.82
2019-04-22T08:23:16.365Z,20.87
2019-04-22T08:24:17.348Z,20.93
2019-04-22T08:25:14.446Z,20.93
2019-04-22T08:26:04.873Z,21.06
2019-04-22T08:27:10.332Z,21.05
2019-04-22T08:28:14.229Z,21.14
2019-04-22T08:29:14.814Z,21.32
2019-04-22T08:30:20.386Z,21.35
2019-04-22T08:31:14.927Z,21.37
2019-04-22T08:32:28.445Z,21.47
2019-04-22T08:33:15.511Z,21.51
2019-04-22T08:34:14.303Z,21.59
2019-04-22T08:35:13.201Z,21.65
2019-04-22T08:36:26.385Z,21.74
2019-04-22T08:38:11.896Z,21.73
2019-04-22T08:39:13.633Z,21.72
2019-04-22T08:40:14.989Z,21.76
2019-04-22T08:41:16.425Z,21.74
2019-04-22T08:42:23.557Z,21.76
2019-04-22T08:43:14.095Z,21.73
2019-04-22T08:44:11.181Z,21.73
2019-04-22T08:46:17.045Z,21.73
2019-04-22T08:48:12.650Z,21.74
2019-04-22T08:49:07.191Z,21.74
2019-04-22T08:50:18.507Z,21.72
2019-04-22T08:51:08.502Z,21.77
2019-04-22T08:52:08.706Z,21.73
2019-04-22T08:53:10.903Z,21.65
2019-04-22T08:55:11.378Z,21.70
2019-04-22T08:56:26.749Z,21.72
2019-04-22T08:57:15.955Z,21.40
2019-04-22T08:59:12.532Z,21.42
2019-04-22T09:00:11.246Z,21.43
2019-04-22T09:01:11.239Z,21.45
2019-04-22T09:02:13.285Z,21.42
2019-04-22T09:04:10.133Z,21.47
2019-04-22T09:05:12.856Z,21.51
2019-04-22T09:06:17.336Z,21.70
2019-04-22T09:08:16.514Z,21.79
2019-04-22T09:09:11.563Z,21.98
2019-04-22T09:10:10.294Z,21.96
2019-04-22T09:11:13.225Z,22.04
2019-04-22T09:12:08.234Z,22.07
2019-04-22T09:13:22.523Z,22.10
2019-04-22T09:14:09.760Z,22.23
2019-04-22T09:15:08.609Z,22.23
2019-04-22T09:16:12.827Z,22.15
2019-04-22T09:17:11.412Z,22.25
2019-04-22T09:18:08.404Z,22.30
2019-04-22T09:19:10.771Z,22.30
2019-04-22T09:20:11.342Z,22.41
2019-04-22T09:21:16.544Z,22.41
2019-04-22T09:22:13.551Z,22.44
2019-04-22T09:23:21.725Z,22.43
2019-04-22T09:24:10.847Z,22.47
2019-04-22T09:25:00.236Z,22.48
2019-04-22T09:26:10.253Z,22.47
2019-04-22T09:27:15.917Z,22.48
2019-04-22T09:28:10.341Z,22.45
2019-04-22T09:29:14.309Z,22.41
2019-04-22T09:30:06.088Z,22.44
2019-04-22T09:31:15.832Z,22.47
2019-04-22T09:32:14.646Z,22.38
2019-04-22T09:33:14.196Z,22.48
2019-04-22T09:34:06.910Z,22.47
2019-04-22T09:35:29.782Z,22.54
2019-04-22T09:36:16.820Z,22.60
2019-04-22T09:37:11.716Z,22.70
2019-04-22T09:38:23.336Z,22.77
2019-04-22T09:39:12.689Z,22.80
2019-04-22T09:40:13.955Z,22.78
2019-04-22T09:41:10.102Z,22.88
2019-04-22T09:42:07.934Z,22.88
2019-04-22T09:43:09.952Z,22.75
2019-04-22T09:44:09.225Z,22.83
2019-04-22T09:45:06.153Z,22.81
2019-04-22T09:46:09.127Z,22.78
2019-04-22T09:47:09.578Z,22.78
2019-04-22T09:48:08.309Z,22.63
2019-04-22T09:49:12.145Z,22.62
2019-04-22T09:50:12.767Z,22.58
2019-04-22T09:51:06.995Z,22.63
2019-04-22T09:52:28.078Z,22.68
2019-04-22T09:53:12.690Z,22.63
2019-04-22T09:56:09.800Z,22.43
2019-04-22T09:57:04.043Z,22.45
2019-04-22T09:58:03.144Z,22.47
2019-04-22T09:59:05.471Z,22.43
2019-04-22T10:00:11.012Z,22.45
2019-04-22T10:01:13.231Z,22.48
2019-04-22T10:02:21.921Z,22.59
2019-04-22T10:03:06.870Z,22.63
2019-04-22T10:04:18.797Z,22.45
2019-04-22T10:05:07.514Z,22.45
2019-04-22T10:06:16.545Z,22.53
2019-04-22T10:07:13.853Z,22.56
2019-04-22T10:08:13.360Z,22.72
2019-04-22T10:09:27.331Z,22.66
2019-04-22T10:10:09.120Z,22.62
2019-04-22T10:11:14.279Z,22.65
2019-04-22T10:12:02.689Z,22.59
2019-04-22T10:13:06.388Z,22.60
2019-04-22T10:14:10.356Z,22.58
2019-04-22T10:15:19.640Z,22.62
2019-04-22T10:16:10.423Z,22.60
2019-04-22T10:17:20.397Z,22.63
2019-04-22T10:18:04.126Z,22.53
2019-04-22T10:19:06.526Z,22.59
2019-04-22T10:20:08.763Z,22.58
2019-04-22T10:21:12.414Z,22.51
2019-04-22T10:21:57.251Z,22.48
2019-04-22T10:23:06.501Z,22.68
2019-04-22T10:24:09.270Z,22.75
2019-04-22T10:25:05.841Z,22.75
2019-04-22T10:26:04.887Z,22.78
2019-04-22T10:27:02.038Z,22.83
2019-04-22T10:28:08.895Z,22.88
2019-04-22T10:29:09.080Z,22.87
2019-04-22T10:30:04.419Z,22.85
2019-04-22T10:31:06.784Z,22.99
2019-04-22T10:32:05.595Z,22.96
2019-04-22T10:33:03.072Z,23.05
2019-04-22T10:33:56.046Z,23.05
2019-04-22T10:34:48.031Z,23.10
2019-04-22T10:35:39.536Z,23.07
2019-04-22T10:36:39.818Z,23.10
2019-04-22T10:37:40.574Z,22.98
2019-04-22T10:38:40.206Z,23.10
2019-04-22T10:39:45.822Z,23.00
2019-04-22T10:40:40.639Z,23.00
2019-04-22T10:41:39.167Z,23.10
2019-04-22T10:42:39.394Z,22.98
2019-04-22T10:43:39.270Z,23.03
2019-04-22T10:44:39.293Z,22.96
2019-04-22T10:45:39.789Z,22.93
2019-04-22T10:46:40.216Z,22.95
2019-04-22T10:47:40.268Z,22.99
2019-04-22T10:48:40.110Z,22.93
2019-04-22T10:49:40.281Z,22.93
2019-04-22T10:50:39.341Z,22.98
2019-04-22T10:51:38.697Z,22.96
2019-04-22T10:52:39.347Z,22.99
2019-04-22T10:53:39.629Z,22.91
2019-04-22T10:54:38.564Z,22.91
2019-04-22T10:55:41.727Z,22.87
2019-04-22T10:56:38.999Z,22.90
2019-04-22T10:57:38.989Z,22.96
2019-04-22T10:58:38.538Z,22.98
2019-04-22T10:59:38.582Z,23.13
2019-04-22T11:00:39.638Z,23.13
2019-04-22T11:01:38.652Z,23.13
2019-04-22T11:02:39.373Z,22.98
2019-04-22T11:03:39.513Z,22.95
2019-04-22T11:04:38.602Z,22.90
2019-04-22T11:05:38.071Z,22.84
2019-04-22T11:06:40.942Z,22.88
2019-04-22T11:07:44.367Z,23.03
2019-04-22T11:08:43.313Z,22.96
2019-04-22T11:09:49.342Z,22.96
2019-04-22T11:10:56.367Z,22.84
2019-04-22T11:11:46.609Z,23.00
2019-04-22T11:12:39.390Z,22.93
2019-04-22T11:13:37.928Z,23.02
2019-04-22T11:14:40.170Z,22.98
2019-04-22T11:15:37.623Z,23.00
2019-04-22T11:16:37.575Z,23.03
2019-04-22T11:17:37.700Z,23.05
2019-04-22T11:18:37.860Z,22.91
2019-04-22T11:19:37.441Z,23.02
2019-04-22T11:20:37.766Z,23.00
2019-04-22T11:21:37.877Z,22.96
2019-04-22T11:22:38.787Z,22.99
2019-04-22T11:23:38.560Z,23.00
2019-04-22T11:24:37.212Z,22.93
2019-04-22T11:25:37.164Z,23.13
2019-04-22T11:26:37.125Z,23.09
2019-04-22T11:27:37.230Z,23.09
2019-04-22T11:28:38.067Z,23.15
2019-04-22T11:29:37.520Z,23.15
2019-04-22T11:30:38.606Z,23.21
2019-04-22T11:31:36.900Z,23.21
2019-04-22T11:32:37.945Z,23.07
2019-04-22T11:33:36.835Z,23.10
2019-04-22T11:34:37.572Z,23.13
2019-04-22T11:35:37.610Z,23.09
2019-04-22T11:36:37.054Z,23.03
2019-04-22T11:37:36.817Z,23.13
2019-04-22T11:38:37.718Z,23.14
2019-04-22T11:39:36.718Z,23.06
2019-04-22T11:40:40.347Z,22.96
2019-04-22T11:41:36.450Z,22.98
2019-04-22T11:42:36.422Z,23.00
2019-04-22T11:43:36.409Z,22.91
2019-04-22T11:44:37.189Z,22.95
2019-04-22T11:45:37.377Z,22.96
2019-04-22T11:46:36.223Z,22.88
2019-04-22T11:47:37.343Z,22.87
2019-04-22T11:48:36.166Z,22.77
2019-04-22T11:49:36.238Z,22.77
2019-04-22T11:50:36.045Z,22.80
2019-04-22T11:51:36.152Z,22.90
2019-04-22T11:52:37.143Z,22.87
2019-04-22T11:53:36.698Z,22.88
2019-04-22T11:54:36.960Z,22.85
2019-04-22T11:55:36.997Z,22.80
2019-04-22T11:56:36.930Z,22.75
2019-04-22T11:57:37.027Z,22.72
2019-04-22T11:58:37.066Z,22.68
2019-04-22T11:59:36.502Z,22.69
2019-04-22T12:00:37.026Z,22.66
2019-04-22T12:01:37.011Z,22.63
2019-04-22T12:02:36.607Z,22.77
2019-04-22T12:03:35.769Z,22.77
2019-04-22T12:04:35.965Z,22.83
2019-04-22T12:05:35.381Z,22.80
2019-04-22T12:06:36.067Z,22.81
2019-04-22T12:07:36.690Z,22.90
2019-04-22T12:08:35.748Z,22.85
2019-04-22T12:09:35.387Z,22.83
2019-04-22T12:10:42.697Z,22.91
2019-04-22T12:11:36.460Z,22.91
2019-04-22T12:12:36.262Z,22.78
2019-04-22T12:13:35.813Z,22.80
2019-04-22T12:14:36.206Z,22.80
2019-04-22T12:15:35.290Z,22.80
2019-04-22T12:16:35.106Z,22.83
2019-04-22T12:17:36.067Z,22.87
2019-04-22T12:18:35.379Z,22.85
2019-04-22T12:19:35.207Z,22.85
2019-04-22T12:20:35.025Z,22.81
2019-04-22T12:21:35.195Z,22.72
2019-04-22T12:22:35.764Z,22.80
2019-04-22T12:23:39.163Z,22.83
2019-04-22T12:24:36.491Z,22.78
2019-04-22T12:25:43.408Z,22.77
2019-04-22T12:26:34.608Z,22.78
2019-04-22T12:27:35.048Z,22.81
2019-04-22T12:28:35.151Z,22.75
2019-04-22T12:29:35.147Z,22.87
2019-04-22T12:30:35.229Z,22.88
2019-04-22T12:31:35.554Z,22.85
2019-04-22T12:32:35.681Z,22.83
2019-04-22T12:33:35.089Z,22.81
2019-04-22T12:34:35.346Z,22.91
2019-04-22T12:35:34.586Z,22.87
2019-04-22T12:36:33.945Z,22.88
2019-04-22T12:37:42.929Z,22.88
2019-04-22T12:38:33.872Z,22.87
2019-04-22T12:39:33.854Z,22.87
2019-04-22T12:40:42.417Z,22.88
2019-04-22T12:41:33.958Z,22.88
2019-04-22T12:42:35.313Z,22.85
2019-04-22T12:43:33.720Z,22.81
2019-04-22T12:44:33.618Z,22.85
2019-04-22T12:45:34.191Z,22.84
2019-04-22T12:46:34.204Z,22.93
2019-04-22T12:47:33.692Z,22.99
2019-04-22T12:48:34.914Z,22.96
2019-04-22T12:49:36.956Z,22.93
2019-04-22T12:50:38.345Z,22.84
2019-04-22T12:51:33.346Z,22.88
2019-04-22T12:52:42.806Z,22.91
2019-04-22T12:53:33.939Z,22.90
2019-04-22T12:54:33.173Z,22.88
2019-04-22T12:55:34.298Z,22.90
2019-04-22T12:56:33.415Z,22.84
2019-04-22T12:57:34.649Z,22.87
2019-04-22T12:58:33.870Z,22.84
2019-04-22T12:59:32.932Z,22.87
2019-04-22T13:00:34.215Z,22.87
2019-04-22T13:01:33.089Z,22.77
2019-04-22T13:02:33.135Z,22.78
2019-04-22T13:03:34.032Z,22.66
2019-04-22T13:04:34.186Z,22.66
2019-04-22T13:05:33.392Z,22.75
2019-04-22T13:06:32.594Z,22.77
2019-04-22T13:07:33.649Z,22.77
2019-04-22T13:08:33.584Z,22.72
2019-04-22T13:09:33.521Z,22.73
2019-04-22T13:10:41.629Z,22.77
2019-04-22T13:11:36.118Z,22.75
2019-04-22T13:12:33.030Z,22.77
2019-04-22T13:13:34.397Z,22.69
2019-04-22T13:14:32.777Z,22.68
2019-04-22T13:15:32.973Z,22.75
2019-04-22T13:16:33.132Z,22.75
2019-04-22T13:17:32.944Z,22.83
2019-04-22T13:18:39.960Z,22.80
2019-04-22T13:19:32.146Z,22.69
2019-04-22T13:20:32.408Z,22.73
2019-04-22T13:21:33.073Z,22.70
2019-04-22T13:22:32.525Z,22.65
2019-04-22T13:23:31.870Z,22.63
2019-04-22T13:24:32.089Z,22.63
2019-04-22T13:25:32.447Z,22.62
2019-04-22T13:26:32.013Z,22.63
2019-04-22T13:27:33.046Z,22.56
2019-04-22T13:28:31.590Z,22.58
2019-04-22T13:29:32.934Z,22.59
2019-04-22T13:30:32.589Z,22.63
2019-04-22T13:31:32.866Z,22.65
2019-04-22T13:32:31.458Z,22.68
2019-04-22T13:33:32.716Z,22.73
2019-04-22T13:34:39.687Z,22.77
2019-04-22T13:35:31.830Z,22.73
2019-04-22T13:36:31.739Z,22.77
2019-04-22T13:37:32.715Z,22.72
2019-04-22T13:38:31.225Z,22.77
2019-04-22T13:39:31.373Z,22.77
2019-04-22T13:40:31.063Z,22.83
2019-04-22T13:41:37.376Z,22.77
2019-04-22T13:42:31.521Z,22.73
2019-04-22T13:43:31.243Z,22.75
2019-04-22T13:44:31.457Z,22.73
2019-04-22T13:45:31.821Z,22.73
2019-04-22T13:46:32.130Z,22.69
2019-04-22T13:47:49.041Z,22.66
2019-04-22T13:48:53.367Z,22.66
2019-04-22T13:50:17.813Z,22.68
2019-04-22T13:52:02.293Z,22.59
2019-04-22T13:54:18.131Z,22.58
2019-04-22T13:54:30.043Z,22.66
2019-04-22T13:55:00.338Z,22.69
2019-04-22T13:56:07.525Z,22.60
2019-04-22T13:56:47.588Z,22.66
2019-04-22T13:57:47.654Z,22.73
2019-04-22T13:58:44.840Z,22.81
2019-04-22T13:59:36.862Z,22.83
2019-04-22T14:00:31.040Z,22.78
2019-04-22T14:01:30.348Z,22.75
2019-04-22T14:02:30.672Z,22.78
2019-04-22T14:03:30.873Z,22.78
2019-04-22T14:04:30.483Z,22.77
2019-04-22T14:05:30.993Z,22.84
2019-04-22T14:06:31.082Z,22.80
2019-04-22T14:07:30.723Z,22.72
2019-04-22T14:08:31.228Z,22.70
2019-04-22T14:09:30.534Z,22.77
2019-04-22T14:10:30.239Z,22.70
2019-04-22T14:11:39.061Z,22.72
2019-04-22T14:12:30.799Z,22.77
2019-04-22T14:13:30.068Z,22.77
2019-04-22T14:14:30.235Z,22.66
2019-04-22T14:15:29.854Z,22.66
2019-04-22T14:16:29.395Z,22.68
2019-04-22T14:17:29.448Z,22.59
2019-04-22T14:18:30.439Z,22.63
2019-04-22T14:19:29.869Z,22.63
2019-04-22T14:20:31.299Z,22.66
2019-04-22T14:21:30.410Z,22.75
2019-04-22T14:22:30.437Z,22.75
2019-04-22T14:23:30.784Z,22.70
2019-04-22T14:24:29.990Z,22.73
2019-04-22T14:25:30.376Z,22.72
2019-04-22T14:26:47.908Z,22.80
2019-04-22T14:27:40.794Z,22.80
2019-04-22T14:28:30.740Z,22.78
2019-04-22T14:29:29.268Z,22.80
2019-04-22T14:30:28.778Z,22.81
2019-04-22T14:31:28.771Z,22.77
2019-04-22T14:32:31.626Z,22.77
2019-04-22T14:33:29.956Z,22.72